createdAt,value
2022-11-13T00:01:13.161Z,13.77
2022-11-13T00:03:59.715Z,17.65
2022-11-13T00:06:47.325Z,14.40
2022-11-13T00:09:33.847Z,13.77
2022-11-13T00:12:19.897Z,13.57
2022-11-13T00:15:07.121Z,14.82
2022-11-13T00:17:53.806Z,17.83
2022-11-13T00:20:40.678Z,15.07
2022-11-13T00:23:28.004Z,17.02
2022-11-13T00:26:16.711Z,14.63
2022-11-13T00:29:04.226Z,15.50
2022-11-13T00:31:50.355Z,13.50
2022-11-13T00:34:52.062Z,17.23
2022-11-13T00:37:38.315Z,15.15
2022-11-13T00:40:26.111Z,13.90
2022-11-13T00:43:12.148Z,19.15
2022-11-13T00:45:58.760Z,19.55
2022-11-13T00:48:45.340Z,17.48
2022-11-13T00:51:32.153Z,14.73
2022-11-13T00:54:18.668Z,18.15
2022-11-13T00:57:06.090Z,16.15
2022-11-13T00:59:52.207Z,18.17
2022-11-13T01:02:38.417Z,19.95
2022-11-13T01:05:24.504Z,17.17
2022-11-13T01:08:12.181Z,15.55
2022-11-13T01:10:58.234Z,17.73
2022-11-13T01:13:47.279Z,18.50
2022-11-13T01:16:33.655Z,16.33
2022-11-13T01:19:20.058Z,19.83
2022-11-13T01:22:06.214Z,19.77
2022-11-13T01:24:52.310Z,18.90
2022-11-13T01:27:38.861Z,22.08
2022-11-13T01:30:26.355Z,19.98
2022-11-13T01:33:12.490Z,22.30
2022-11-13T01:36:02.074Z,21.95
2022-11-13T01:38:49.235Z,22.85
2022-11-13T01:41:35.900Z,22.92
2022-11-13T01:44:22.566Z,20.50
2022-11-13T01:47:10.733Z,20.30
2022-11-13T01:49:59.746Z,24.08
2022-11-13T01:52:45.986Z,21.05
2022-11-13T01:55:32.099Z,19.30
2022-11-13T01:58:18.581Z,20.85
2022-11-13T02:01:04.697Z,22.13
2022-11-13T02:03:52.150Z,21.35
2022-11-13T02:06:43.254Z,21.10
2022-11-13T02:09:32.654Z,17.75
2022-11-13T02:12:26.241Z,17.65
2022-11-13T02:15:12.411Z,16.27
2022-11-13T02:18:00.913Z,17.48
2022-11-13T02:20:54.565Z,16.55
2022-11-13T02:23:46.716Z,19.55
2022-11-13T02:26:34.747Z,17.27
2022-11-13T02:29:21.613Z,16.83
2022-11-13T02:32:08.140Z,15.75
2022-11-13T02:34:54.602Z,19.35
2022-11-13T02:37:41.033Z,18.80
2022-11-13T02:40:27.348Z,15.38
2022-11-13T02:43:15.136Z,19.48
2022-11-13T02:46:01.615Z,18.20
2022-11-13T02:48:47.989Z,19.38
2022-11-13T02:51:34.338Z,17.25
2022-11-13T02:54:20.734Z,20.20
2022-11-13T02:57:06.733Z,22.75
2022-11-13T02:59:54.271Z,17.55
2022-11-13T03:02:40.534Z,18.13
2022-11-13T03:05:26.600Z,16.88
2022-11-13T03:08:12.591Z,18.73
2022-11-13T03:10:59.171Z,19.45
2022-11-13T03:13:45.258Z,19.70
2022-11-13T03:16:33.045Z,17.92
2022-11-13T03:19:19.244Z,17.45
2022-11-13T03:22:05.485Z,21.13
2022-11-13T03:24:51.447Z,19.52
2022-11-13T03:27:37.882Z,21.48
2022-11-13T03:30:23.831Z,22.30
2022-11-13T03:33:11.632Z,19.92
2022-11-13T03:35:57.701Z,23.85
2022-11-13T03:38:44.053Z,22.08
2022-11-13T03:41:30.051Z,24.17
2022-11-13T03:44:16.307Z,22.10
2022-11-13T03:47:02.442Z,23.02
2022-11-13T03:49:50.050Z,19.92
2022-11-13T03:52:36.381Z,18.45
2022-11-13T03:55:22.770Z,19.70
2022-11-13T03:58:09.262Z,21.52
2022-11-13T04:00:56.745Z,19.92
2022-11-13T04:03:43.275Z,19.73
2022-11-13T04:06:30.971Z,18.10
2022-11-13T04:09:17.307Z,18.25
2022-11-13T04:12:03.600Z,20.58
2022-11-13T04:14:50.354Z,19.98
2022-11-13T04:17:36.371Z,16.50
2022-11-13T04:20:22.970Z,18.65
2022-11-13T04:23:14.413Z,15.90
2022-11-13T04:26:00.984Z,16.58
2022-11-13T04:28:47.346Z,14.45
2022-11-13T04:31:33.619Z,16.35
2022-11-13T04:34:20.142Z,15.70
2022-11-13T04:37:06.134Z,18.08
2022-11-13T04:39:53.982Z,17.85
2022-11-13T04:42:51.471Z,15.10
2022-11-13T04:45:38.438Z,17.35
2022-11-13T04:48:25.306Z,18.25
2022-11-13T04:51:11.624Z,20.58
2022-11-13T04:53:58.115Z,18.92
2022-11-13T04:56:46.146Z,18.25
2022-11-13T04:59:32.530Z,20.83
2022-11-13T05:02:19.048Z,21.55
2022-11-13T05:05:06.190Z,18.90
2022-11-13T05:07:53.682Z,22.55
2022-11-13T05:10:40.083Z,18.75
2022-11-13T05:13:30.921Z,20.52
2022-11-13T05:16:19.435Z,20.40
2022-11-13T05:19:06.837Z,17.55
2022-11-13T05:21:52.866Z,19.13
2022-11-13T05:24:39.245Z,18.92
2022-11-13T05:27:25.574Z,17.35
2022-11-13T05:30:13.311Z,18.65
2022-11-13T05:32:59.635Z,21.55
2022-11-13T05:35:46.022Z,22.65
2022-11-13T05:38:32.468Z,18.00
2022-11-13T05:41:20.121Z,15.10
2022-11-13T05:44:06.779Z,17.95
2022-11-13T05:46:54.183Z,17.90
2022-11-13T05:49:40.382Z,18.38
2022-11-13T05:52:26.793Z,16.48
2022-11-13T05:55:12.849Z,15.25
2022-11-13T05:58:00.294Z,15.15
2022-11-13T06:00:46.883Z,13.38
2022-11-13T06:03:35.042Z,14.65
2022-11-13T06:06:23.480Z,16.98
2022-11-13T06:09:11.306Z,14.75
2022-11-13T06:11:57.775Z,17.67
2022-11-13T06:14:44.157Z,13.50
2022-11-13T06:17:30.697Z,15.40
2022-11-13T06:20:18.487Z,15.65
2022-11-13T06:23:04.908Z,18.70
2022-11-13T06:25:51.079Z,15.85
2022-11-13T06:28:38.168Z,15.38
2022-11-13T06:31:27.568Z,16.63
2022-11-13T06:34:13.948Z,15.65
2022-11-13T06:37:01.956Z,20.40
2022-11-13T06:39:48.175Z,18.20
2022-11-13T06:42:34.376Z,15.20
2022-11-13T06:45:20.906Z,19.42
2022-11-13T06:48:07.561Z,16.33
2022-11-13T06:50:53.764Z,18.50
2022-11-13T06:53:41.271Z,16.80
2022-11-13T06:56:27.861Z,15.63
2022-11-13T06:59:14.363Z,18.33
2022-11-13T07:02:00.659Z,18.35
2022-11-13T07:04:46.656Z,19.85
2022-11-13T07:07:33.108Z,14.60
2022-11-13T07:10:20.653Z,19.38
2022-11-13T07:13:07.122Z,17.33
2022-11-13T07:15:53.558Z,20.30
2022-11-13T07:18:39.862Z,20.40
2022-11-13T07:21:26.009Z,19.00
2022-11-13T07:24:16.730Z,15.77
2022-11-13T07:27:05.179Z,18.20
2022-11-13T07:29:51.439Z,21.77
2022-11-13T07:32:37.996Z,18.02
2022-11-13T07:35:24.215Z,18.63
2022-11-13T07:38:11.229Z,21.27
2022-11-13T07:40:59.806Z,21.92
2022-11-13T07:43:47.281Z,19.70
2022-11-13T07:46:33.707Z,18.30
2022-11-13T07:49:19.988Z,16.42
2022-11-13T07:52:06.291Z,18.73
2022-11-13T07:54:52.871Z,16.90
2022-11-13T07:57:38.933Z,22.60
2022-11-13T08:00:27.174Z,22.38
2022-11-13T08:03:15.664Z,21.08
2022-11-13T08:06:03.437Z,21.83
2022-11-13T08:08:49.788Z,20.17
2022-11-13T08:11:36.183Z,23.88
2022-11-13T08:14:22.382Z,25.00
2022-11-13T08:17:09.845Z,23.58
2022-11-13T08:19:56.013Z,20.80
2022-11-13T08:22:42.380Z,22.60
2022-11-13T08:25:28.749Z,25.95
2022-11-13T08:28:15.527Z,21.17
2022-11-13T08:31:02.772Z,27.20
2022-11-13T08:33:50.248Z,25.63
2022-11-13T08:36:36.739Z,22.02
2022-11-13T08:39:22.857Z,27.05
2022-11-13T08:42:09.120Z,23.95
2022-11-13T08:44:55.573Z,21.63
2022-11-13T08:47:41.876Z,23.60
2022-11-13T08:50:30.652Z,24.42
2022-11-13T08:53:16.627Z,27.42
2022-11-13T08:56:03.200Z,28.40
2022-11-13T08:58:49.599Z,25.73
2022-11-13T09:01:35.849Z,24.35
2022-11-13T09:04:22.507Z,27.77
2022-11-13T09:07:10.171Z,26.83
2022-11-13T09:09:56.531Z,24.58
2022-11-13T09:12:43.032Z,26.35
2022-11-13T09:15:30.013Z,26.95
2022-11-13T09:18:16.511Z,25.13
2022-11-13T09:21:03.746Z,25.45
2022-11-13T09:23:51.575Z,26.50
2022-11-13T09:26:37.967Z,23.00
2022-11-13T09:29:26.143Z,25.80
2022-11-13T09:32:12.968Z,24.08
2022-11-13T09:34:59.850Z,24.35
2022-11-13T09:37:46.384Z,24.05
2022-11-13T09:40:36.889Z,27.25
2022-11-13T09:43:32.093Z,19.20
2022-11-13T09:46:21.627Z,22.85
2022-11-13T09:49:16.220Z,24.60
2022-11-13T09:52:06.990Z,24.35
2022-11-13T09:54:53.907Z,22.80
2022-11-13T09:57:48.506Z,23.85
2022-11-13T10:00:36.154Z,24.10
2022-11-13T10:03:59.082Z,23.55
2022-11-13T10:07:06.735Z,25.13
2022-11-13T10:10:03.083Z,28.85
2022-11-13T10:12:53.687Z,24.50
2022-11-13T10:15:41.563Z,26.90
2022-11-13T10:18:31.360Z,26.05
2022-11-13T10:21:28.162Z,26.73
2022-11-13T10:24:18.207Z,23.65
2022-11-13T10:27:09.836Z,22.08
2022-11-13T10:29:57.944Z,24.73
2022-11-13T10:32:45.800Z,24.70
2022-11-13T10:35:50.498Z,28.42
2022-11-13T10:38:42.925Z,26.95
2022-11-13T10:41:29.216Z,24.02
2022-11-13T10:44:30.931Z,23.85
2022-11-13T10:47:36.469Z,21.15
2022-11-13T10:50:28.629Z,21.25
2022-11-13T10:53:17.174Z,27.83
2022-11-13T10:56:12.417Z,25.15
2022-11-13T10:59:12.052Z,22.67
2022-11-13T11:01:58.164Z,24.40
2022-11-13T11:04:46.642Z,26.45
2022-11-13T11:07:40.544Z,21.33
2022-11-13T11:10:32.651Z,21.65
2022-11-13T11:13:23.964Z,23.23
2022-11-13T11:16:15.623Z,24.65
2022-11-13T11:19:05.701Z,20.67
2022-11-13T11:22:00.580Z,21.42
2022-11-13T11:24:56.988Z,22.67
2022-11-13T11:27:48.030Z,23.55
2022-11-13T11:30:40.795Z,22.45
2022-11-13T11:33:32.880Z,25.67
2022-11-13T11:36:31.463Z,23.48
2022-11-13T11:39:29.166Z,23.20
2022-11-13T11:42:29.254Z,24.73
2022-11-13T11:45:21.128Z,26.15
2022-11-13T11:48:13.421Z,23.65
2022-11-13T11:51:08.509Z,24.15
2022-11-13T11:54:04.898Z,21.35
2022-11-13T11:56:54.662Z,22.80
2022-11-13T11:59:55.490Z,22.85
2022-11-13T12:03:06.512Z,21.45
2022-11-13T12:06:06.965Z,22.83
2022-11-13T12:08:59.713Z,18.58
2022-11-13T12:11:52.700Z,21.13
2022-11-13T12:14:47.856Z,20.50
2022-11-13T12:17:49.509Z,18.00
2022-11-13T12:20:43.495Z,16.38
2022-11-13T12:23:46.265Z,19.00
2022-11-13T12:26:38.412Z,17.98
2022-11-13T12:29:45.971Z,19.20
2022-11-13T12:32:44.447Z,17.17
2022-11-13T12:35:30.750Z,15.90
2022-11-13T12:38:30.239Z,21.45
2022-11-13T12:41:24.965Z,19.67
2022-11-13T12:44:22.108Z,17.65
2022-11-13T12:47:10.599Z,17.75
2022-11-13T12:50:01.686Z,15.90
2022-11-13T12:52:59.127Z,16.00
2022-11-13T12:55:59.930Z,17.33
2022-11-13T12:59:24.221Z,16.00
2022-11-13T13:02:26.510Z,13.68
2022-11-13T13:05:34.064Z,18.95
2022-11-13T13:08:46.826Z,16.90
2022-11-13T13:11:41.544Z,17.23
2022-11-13T13:14:47.436Z,17.13
2022-11-13T13:17:35.558Z,16.27
2022-11-13T13:20:35.063Z,17.58
2022-11-13T13:23:28.190Z,17.42
2022-11-13T13:26:18.131Z,22.48
2022-11-13T13:29:17.821Z,26.27
2022-11-13T13:32:20.599Z,28.52
2022-11-13T13:35:15.700Z,35.97
2022-11-13T13:38:08.886Z,34.72
2022-11-13T13:41:10.846Z,13.75
2022-11-13T13:44:12.161Z,22.90
2022-11-13T13:46:59.133Z,20.45
2022-11-13T13:49:45.577Z,18.02
2022-11-13T13:52:34.657Z,18.00
2022-11-13T13:55:29.592Z,18.08
2022-11-13T13:58:18.725Z,19.00
2022-11-13T14:01:22.966Z,17.52
2022-11-13T14:04:15.105Z,15.27
2022-11-13T14:07:03.307Z,17.98
2022-11-13T14:09:51.475Z,16.58
2022-11-13T14:12:42.991Z,17.92
2022-11-13T14:15:31.396Z,20.60
2022-11-13T14:18:18.782Z,18.23
2022-11-13T14:21:12.865Z,18.20
2022-11-13T14:24:02.485Z,19.92
2022-11-13T14:26:51.738Z,15.57
2022-11-13T14:29:40.815Z,18.00
2022-11-13T14:32:30.025Z,24.05
2022-11-13T14:35:21.052Z,19.35
2022-11-13T14:38:19.972Z,20.98
2022-11-13T14:41:06.898Z,21.33
2022-11-13T14:43:55.595Z,22.95
2022-11-13T14:46:44.795Z,22.02
2022-11-13T14:49:33.432Z,21.38
2022-11-13T14:52:25.010Z,22.20
2022-11-13T14:55:22.544Z,25.67
2022-11-13T14:58:13.352Z,23.40
2022-11-13T15:01:12.384Z,20.73
2022-11-13T15:03:58.699Z,27.35
2022-11-13T15:06:45.023Z,23.98
2022-11-13T15:09:31.973Z,24.90
2022-11-13T15:12:18.524Z,28.15
2022-11-13T15:15:05.279Z,23.10
2022-11-13T15:17:53.338Z,24.17
2022-11-13T15:20:39.539Z,28.65
2022-11-13T15:23:29.302Z,23.05
2022-11-13T15:26:16.323Z,24.35
2022-11-13T15:29:02.575Z,25.60
2022-11-13T15:31:49.152Z,23.23
2022-11-13T15:34:36.775Z,21.17
2022-11-13T15:37:23.286Z,23.15
2022-11-13T15:40:12.096Z,21.40
2022-11-13T15:43:01.189Z,21.30
2022-11-13T15:45:47.324Z,15.07
2022-11-13T15:48:33.777Z,13.30
2022-11-13T15:51:23.836Z,16.95
2022-11-13T15:54:17.411Z,13.73
2022-11-13T15:57:03.747Z,12.32
2022-11-13T15:59:50.319Z,11.88
2022-11-13T16:02:36.892Z,12.80
2022-11-13T16:05:25.615Z,10.77
2022-11-13T16:08:16.101Z,10.68
2022-11-13T16:11:03.019Z,9.40
2022-11-13T16:13:49.233Z,10.50
2022-11-13T16:16:38.112Z,12.20
2022-11-13T16:19:25.592Z,12.13
2022-11-13T16:22:18.343Z,10.50
2022-11-13T16:25:07.288Z,10.02
2022-11-13T16:27:53.900Z,8.05
2022-11-13T16:30:40.088Z,9.20
2022-11-13T16:33:26.602Z,6.43
2022-11-13T16:36:15.666Z,6.78
2022-11-13T16:39:02.580Z,6.90
2022-11-13T16:41:50.660Z,7.38
2022-11-13T16:44:37.218Z,7.15
2022-11-13T16:47:25.084Z,7.40
2022-11-13T16:50:14.866Z,8.57
2022-11-13T16:53:01.223Z,8.82
2022-11-13T16:55:47.462Z,8.88
2022-11-13T16:58:35.262Z,7.47
2022-11-13T17:01:22.407Z,7.35
2022-11-13T17:04:08.668Z,7.97
2022-11-13T17:06:57.749Z,6.43
2022-11-13T17:09:46.418Z,6.53
2022-11-13T17:12:33.008Z,6.60
2022-11-13T17:15:21.613Z,6.90
2022-11-13T17:18:10.485Z,7.55
2022-11-13T17:20:57.041Z,9.68
2022-11-13T17:23:43.270Z,10.38
2022-11-13T17:26:31.068Z,8.68
2022-11-13T17:29:17.666Z,7.10
2022-11-13T17:32:05.504Z,7.82
2022-11-13T17:34:51.869Z,7.38
2022-11-13T17:37:38.632Z,8.18
2022-11-13T17:40:25.165Z,6.00
2022-11-13T17:43:11.347Z,8.52
2022-11-13T17:45:58.291Z,5.78
2022-11-13T17:48:48.036Z,6.82
2022-11-13T17:51:34.374Z,5.90
2022-11-13T17:54:20.781Z,8.48
2022-11-13T17:57:10.073Z,6.25
2022-11-13T17:59:56.390Z,7.63
2022-11-13T18:02:43.084Z,7.25
2022-11-13T18:05:30.712Z,5.55
2022-11-13T18:08:16.845Z,6.85
2022-11-13T18:11:08.261Z,6.70
2022-11-13T18:13:55.008Z,7.45
2022-11-13T18:16:41.850Z,6.22
2022-11-13T18:19:28.490Z,5.05
2022-11-13T18:22:16.635Z,6.97
2022-11-13T18:25:03.339Z,7.05
2022-11-13T18:27:49.785Z,6.55
2022-11-13T18:30:41.916Z,5.57
2022-11-13T18:33:28.519Z,8.25
2022-11-13T18:36:15.612Z,6.28
2022-11-13T18:39:03.936Z,8.30
2022-11-13T18:41:50.566Z,7.85
2022-11-13T18:44:37.257Z,7.88
2022-11-13T18:47:23.605Z,7.82
2022-11-13T18:50:11.397Z,6.95
2022-11-13T18:52:58.104Z,8.02
2022-11-13T18:55:45.726Z,6.60
2022-11-13T18:58:31.974Z,7.53
2022-11-13T19:01:22.508Z,8.23
2022-11-13T19:04:25.655Z,8.43
2022-11-13T19:07:12.728Z,9.10
2022-11-13T19:09:59.442Z,9.57
2022-11-13T19:12:47.297Z,8.77
2022-11-13T19:15:36.326Z,9.73
2022-11-13T19:18:22.584Z,9.57
2022-11-13T19:21:11.704Z,9.00
2022-11-13T19:23:58.775Z,10.73
2022-11-13T19:26:45.909Z,10.02
2022-11-13T19:29:33.448Z,10.45
2022-11-13T19:32:19.681Z,11.10
2022-11-13T19:35:06.588Z,11.73
2022-11-13T19:37:57.065Z,13.38
2022-11-13T19:40:45.757Z,13.73
2022-11-13T19:43:32.588Z,15.75
2022-11-13T19:46:21.454Z,14.75
2022-11-13T19:49:08.063Z,15.93
2022-11-13T19:51:55.119Z,16.98
2022-11-13T19:54:42.036Z,17.40
2022-11-13T19:57:28.580Z,16.98
2022-11-13T20:00:15.529Z,17.38
2022-11-13T20:03:07.477Z,16.58
2022-11-13T20:05:55.781Z,13.40
2022-11-13T20:08:42.940Z,17.30
2022-11-13T20:11:29.663Z,18.42
2022-11-13T20:14:16.761Z,17.80
2022-11-13T20:17:03.681Z,18.00
2022-11-13T20:19:51.734Z,20.02
2022-11-13T20:22:38.184Z,18.20
2022-11-13T20:25:24.257Z,20.02
2022-11-13T20:28:10.795Z,21.60
2022-11-13T20:31:04.392Z,20.65
2022-11-13T20:33:52.289Z,19.85
2022-11-13T20:36:40.179Z,19.85
2022-11-13T20:39:26.708Z,22.42
2022-11-13T20:42:12.859Z,21.23
2022-11-13T20:45:01.299Z,22.88
2022-11-13T20:47:48.717Z,22.77
2022-11-13T20:50:36.578Z,23.92
2022-11-13T20:53:24.790Z,26.45
2022-11-13T20:56:11.293Z,23.05
2022-11-13T20:58:57.689Z,25.17
2022-11-13T21:01:47.603Z,19.77
2022-11-13T21:04:34.174Z,23.95
2022-11-13T21:07:20.699Z,23.88
2022-11-13T21:10:10.001Z,24.05
2022-11-13T21:12:56.096Z,24.38
2022-11-13T21:15:42.631Z,21.50
2022-11-13T21:18:31.351Z,24.70
2022-11-13T21:21:21.511Z,25.05
2022-11-13T21:24:08.507Z,23.27
2022-11-13T21:26:57.810Z,23.15
2022-11-13T21:29:44.504Z,21.63
2022-11-13T21:32:34.146Z,22.15
2022-11-13T21:35:22.743Z,23.73
2022-11-13T21:38:09.178Z,22.70
2022-11-13T21:41:13.852Z,23.65
2022-11-13T21:44:03.301Z,23.20
2022-11-13T21:46:49.704Z,26.77
2022-11-13T21:49:37.541Z,23.27
2022-11-13T21:52:23.693Z,22.70
2022-11-13T21:55:10.942Z,21.63
2022-11-13T21:57:57.309Z,26.15
2022-11-13T22:00:45.807Z,22.95
2022-11-13T22:03:32.751Z,24.17
2022-11-13T22:06:22.230Z,26.13
2022-11-13T22:09:14.112Z,25.65
2022-11-13T22:12:01.283Z,29.60
2022-11-13T22:14:47.210Z,25.52
2022-11-13T22:17:35.059Z,25.83
2022-11-13T22:20:21.106Z,25.23
2022-11-13T22:23:07.342Z,25.30
2022-11-13T22:25:58.045Z,26.50
2022-11-13T22:28:46.076Z,25.65
2022-11-13T22:31:33.275Z,27.05
2022-11-13T22:34:21.292Z,26.23
2022-11-13T22:37:07.680Z,24.38
2022-11-13T22:39:54.014Z,24.80
2022-11-13T22:42:40.214Z,26.83
2022-11-13T22:45:26.425Z,25.92
2022-11-13T22:48:13.097Z,26.48
2022-11-13T22:51:05.751Z,29.20
2022-11-13T22:53:53.731Z,27.50
2022-11-13T22:56:41.596Z,31.73
2022-11-13T22:59:27.973Z,27.20
2022-11-13T23:02:14.565Z,28.48
2022-11-13T23:05:01.056Z,27.02
2022-11-13T23:07:49.712Z,27.92
2022-11-13T23:10:35.844Z,25.52
2022-11-13T23:13:22.524Z,28.23
2022-11-13T23:16:08.800Z,24.20
2022-11-13T23:18:56.617Z,27.63
2022-11-13T23:21:45.758Z,27.85
2022-11-13T23:24:33.438Z,29.65
2022-11-13T23:27:19.576Z,30.05
2022-11-13T23:30:06.673Z,32.25
2022-11-13T23:32:53.257Z,28.25
2022-11-13T23:35:39.675Z,25.45
2022-11-13T23:38:26.134Z,28.08
2022-11-13T23:41:14.137Z,31.83
2022-11-13T23:44:09.544Z,31.30
2022-11-13T23:46:56.223Z,30.17
2022-11-13T23:49:42.668Z,27.05
2022-11-13T23:52:29.509Z,28.42
2022-11-13T23:55:16.755Z,32.67
2022-11-13T23:58:06.199Z,28.75
